Etusivu
METAR-TAF:

METAR-TAF

Lentoasemat :

Dakhla, Marokko

Leveyspiiri: 23-43-05N, Pituuspiiri: 015-55-55W, korkeus merenpinnasta: 11 m

Tämänhetkinen sää

Tämä raportti tehtiin 3 tuntia ja 37 minuuttia sitten, kello 21.00 UTC
Tuuli 13 kn pohjoisesta/koillisesta
Lämpötila 21°C
Kosteus 78%
Ilmanpaine 1014 hPa
Näkyvyys: 6000 m

METAR: GMMH 162100Z 03013KT 6000 NSC 21/17 Q1014 NOSIG

Aika: 01:37 (00:37 UTC)

Sääennuste

Tämä raportti tehtiin 1 tunti ja 37 minuuttia sitten, kello 23.00 UTC
Ennuste voimassa 17. päivästä klo 00 UTC - 18. päivään klo 06 UTC
Tuuli 8 kn koillisesta
Näkyvyys: 6000 m
Todennäköisyys 30%
17. päivästä klo 04 UTC - 17. päivään klo 08 UTC
Näkyvyys: 3000 m
Hajonneita pilviä 1000 ft:n korkeudessa
utua,

TAF: GMMH 162300Z 1700/1806 04008KT 6000 NSC PROB30 1704/1708 3000 BR BKN010

Säähavainnot ja -ennusteet yli 4000 lentoasemalta (METAR- ja TAF-raportit).

Käytössä olevat sääasemat on merkitty karttaan keltaisilla ja punaisilla pisteillä.

Aseta hiiri pisteen päälle nähdäksesi sääaseman nimen.

Klikkaa sitten nähdäksesi säähavainnot ja -ennusteet.

Kartan vaihtaminen: klikkaa mustalla rastilla varustettuja vihreitä pisteitä, niin voit zoomata sisään; viivalla varustettua vihreää pistettä, niin voit zoomata ulos tai vihreitä nuolia, niin pääset viereisille kartoille.


METAR-TAF: